Aviation Digital Data Service (ADDS)

Output produced by METARs form (0919 UTC 17 February 2019)
found at http://aviationweather.gov/metar/data/
 
Forecast for: EPCE (CEWICE AIRBASE , PL)
Text: TAF EPCE 170800Z 1709/1718 27010KT 9999 BKN020
Forecast period: 0900 to 1800 UTC 17 February 2019
Forecast type: FROM: standard forecast or significant change
Winds: from the W (270 degrees) at 12 MPH (10 knots; 5.1 m/s)
Visibility: 6 or more miles 10+ km)
Ceiling: 2000 feet AGL
Clouds: broken clouds at 2000 feet AGL
Weather: no significant weather forecast for this period
Text: TEMPO 1709/1714 5000 BR BKN007
Forecast period: 0900 to 1400 UTC 17 February 2019
Forecast type: TEMPORARY: The following changes expected for less than half the time period
Visibility: 3 miles (5 km)
Ceiling: 700 feet AGL
Clouds: broken clouds at 700 feet AGL
Weather: BR  (mist)

Forecast for: AMD
Text: TAF AMD EPDA 170904Z 1709/1718 26005KT 5000 BR BKN020
Forecast period: 0900 to 1600 UTC 17 February 2019
Forecast type: FROM: standard forecast or significant change
Winds: from the W (260 degrees) at 6 MPH (5 knots; 2.6 m/s)
Visibility: 3 miles (5 km)
Ceiling: 2000 feet AGL
Clouds: broken clouds at 2000 feet AGL
Weather: BR  (mist)
Text: TEMPO 1710/1715 3000 BR BKN010
Forecast period: 1000 to 1500 UTC 17 February 2019
Forecast type: TEMPORARY: The following changes expected for less than half the time period
Visibility: 1.86 miles (2.99 km)
Ceiling: 1000 feet AGL
Clouds: broken clouds at 1000 feet AGL
Weather: BR  (mist)
Text: PROB40 1710/1716 1200 BR BKN005
Forecast period: 1000 to 1600 UTC 17 February 2019
Forecast type: PROBABLE: 40 percent likelihood of the following during this time
Visibility: 0.75 miles (1.21 km)
Ceiling: 500 feet AGL
Clouds: broken clouds at 500 feet AGL
Weather: BR  (mist)
Text: BECMG 1716/1718 0500 FG OVC002
Forecast period: 1600 to 1800 UTC 17 February 2019
Forecast type: BECOMING: Conditions expected to become as follows by 1800 UTC 17 February 2019
Winds: from the W (260 degrees) at 6 MPH (5 knots; 2.6 m/s)
Visibility: 0.31 miles (0.50 km)
Ceiling: 200 feet AGL
Clouds: overcast cloud deck at 200 feet AGL
Weather: FG  (fog)

Forecast for: EPKS (KRZESINY ARPT , PL)
Text: TAF EPKS 170800Z 1709/1718 24006KT 9999 BKN020
Forecast period: 0900 to 1300 UTC 17 February 2019
Forecast type: FROM: standard forecast or significant change
Winds: from the WSW (240 degrees) at 7 MPH (6 knots; 3.1 m/s)
Visibility: 6 or more miles 10+ km)
Ceiling: 2000 feet AGL
Clouds: broken clouds at 2000 feet AGL
Weather: no significant weather forecast for this period
Text: BECMG 1713/1715 VRB03KT NSC
Forecast period: 1300 to 1800 UTC 17 February 2019
Forecast type: BECOMING: Conditions expected to become as follows by 1500 UTC 17 February 2019
Winds: variable direction winds at 3 MPH (3 knots; 1.5 m/s)
Visibility: 6 or more miles 10+ km)
Ceiling: unknown
Clouds: missing
Weather: no significant weather forecast for this period

Forecast for: EPMI (TWELTH AIRBASE , PL)
Text: TAF EPMI 170800Z 1709/1718 26006KT 9999 BKN020
Forecast period: 0900 to 1800 UTC 17 February 2019
Forecast type: FROM: standard forecast or significant change
Winds: from the W (260 degrees) at 7 MPH (6 knots; 3.1 m/s)
Visibility: 6 or more miles 10+ km)
Ceiling: 2000 feet AGL
Clouds: broken clouds at 2000 feet AGL
Weather: no significant weather forecast for this period
Text: PROB40
Forecast period: 1000 to 1800 UTC 17 February 2019
Forecast type: TEMPORARY: The following changes expected for less than half the time period
Visibility: 1.86 miles (2.99 km)
Ceiling: 500 feet AGL
Clouds: overcast cloud deck at 500 feet AGL
Weather: BR  (mist)
Text: TEMPO 1710/1718 3000 BR OVC005
Forecast period: 1300 to 1800 UTC 17 February 2019
Forecast type: TEMPORARY: The following changes expected for less than half the time period
Visibility: 0.50 miles (0.80 km)
Ceiling: 200 feet AGL
Clouds: overcast cloud deck at 200 feet AGL
Weather: FG  (fog)

Forecast for: COR
Text: TAF COR EPOK 170800Z 1709/1718 28010KT 9999 BKN010
Forecast period: 0900 to 1200 UTC 17 February 2019
Forecast type: FROM: standard forecast or significant change
Winds: from the W (280 degrees) at 12 MPH (10 knots; 5.1 m/s)
Visibility: 6 or more miles 10+ km)
Ceiling: 1000 feet AGL
Clouds: broken clouds at 1000 feet AGL
Weather: no significant weather forecast for this period
Text: PROB40
Forecast period: 0900 to 1200 UTC 17 February 2019
Forecast type: TEMPORARY: The following changes expected for less than half the time period
Visibility: 3 miles (5 km)
Ceiling: 600 feet AGL
Clouds: broken clouds at 600 feet AGL
Weather: -DZ BR  (light drizzle, mist)
Text: TEMPO 1709/1712 5000 -DZ BR BKN006
Forecast period: 1200 to 1800 UTC 17 February 2019
Forecast type: BECOMING: Conditions expected to become as follows by 1500 UTC 17 February 2019
Winds: from the W (280 degrees) at 12 MPH (10 knots; 5.1 m/s)
Visibility: 6 or more miles 10+ km)
Ceiling: 2000 feet AGL
Clouds: broken clouds at 2000 feet AGL
Weather: no significant weather forecast for this period

Forecast for: EPPW (POWIDZ AIRPORT , PL)
Text: TAF EPPW 170800Z 1709/1718 25005KT 9999 BKN020
Forecast period: 0900 to 1800 UTC 17 February 2019
Forecast type: FROM: standard forecast or significant change
Winds: from the WSW (250 degrees) at 6 MPH (5 knots; 2.6 m/s)
Visibility: 6 or more miles 10+ km)
Ceiling: 2000 feet AGL
Clouds: broken clouds at 2000 feet AGL
Weather: no significant weather forecast for this period
Text: PROB40 1716/1718 4000 BR
Forecast period: 1600 to 1800 UTC 17 February 2019
Forecast type: PROBABLE: 40 percent likelihood of the following during this time
Visibility: 2.49 miles (4.01 km)
Ceiling: unknown
Clouds: missing
Weather: BR  (mist)

METAR text: EPRA 170900Z 27008KT CAVOK 08/00 Q1024
Conditions at: EPRA (RADOM AIRPORT , PL) observed 0900 UTC 17 February 2019
Temperature: 8.0°C (46°F)
Dewpoint: 0.0°C (32°F) [RH = 57%]
Pressure (altimeter): 30.24 inches Hg (1024.0 mb)
Winds: from the W (270 degrees) at 9 MPH (8 knots; 4.1 m/s)
Visibility: 6 or more miles (10+ km)
Ceiling: ceiling and visibility are OK
Clouds: unknown
Weather: no significant weather observed at this time

METAR text: EPRA 170830Z 27008KT CAVOK 07/M00 Q1024
Conditions at: EPRA (RADOM AIRPORT , PL) observed 0830 UTC 17 February 2019
Temperature: 7.0°C (45°F)
Dewpoint: 0.0°C (32°F) [RH = 61%]
Pressure (altimeter): 30.24 inches Hg (1024.0 mb)
Winds: from the W (270 degrees) at 9 MPH (8 knots; 4.1 m/s)
Visibility: 6 or more miles (10+ km)
Ceiling: ceiling and visibility are OK
Clouds: unknown
Weather: no significant weather observed at this time

Forecast for: EPRA (RADOM AIRPORT , PL)
Text: TAF EPRA 170830Z 1709/1718 27008KT CAVOK
Forecast period: 0900 to 1800 UTC 17 February 2019
Forecast type: FROM: standard forecast or significant change
Winds: from the W (270 degrees) at 9 MPH (8 knots; 4.1 m/s)
Visibility: 6 or more miles 10+ km)
Ceiling: unknown
Clouds: missing
Weather: NSW  (no significant weather)
Text: TEMPO 1716/1718 5000 BR
Forecast period: 1600 to 1800 UTC 17 February 2019
Forecast type: TEMPORARY: The following changes expected for less than half the time period
Visibility: 3 miles (5 km)
Ceiling: unknown
Clouds: missing
Weather: BR  (mist)

Forecast for: EPSN (SWIDWIN ARPT , PL)
Text: TAF EPSN 170800Z 1709/1718 24006KT 9999 BKN020
Forecast period: 0900 to 1800 UTC 17 February 2019
Forecast type: FROM: standard forecast or significant change
Winds: from the WSW (240 degrees) at 7 MPH (6 knots; 3.1 m/s)
Visibility: 6 or more miles 10+ km)
Ceiling: 2000 feet AGL
Clouds: broken clouds at 2000 feet AGL
Weather: no significant weather forecast for this period
Text: PROB40
Forecast period: 1500 to 1800 UTC 17 February 2019
Forecast type: TEMPORARY: The following changes expected for less than half the time period
Visibility: 3 miles (5 km)
Ceiling: 1200 feet AGL
Clouds: broken clouds at 1200 feet AGL
Weather: BR  (mist)